createdAt,value
2018-07-06T00:00:00.455Z,23.00
2018-07-06T00:01:01.036Z,23.00
2018-07-06T00:02:01.627Z,23.02
2018-07-06T00:03:02.254Z,22.98
2018-07-06T00:04:02.840Z,22.96
2018-07-06T00:05:03.426Z,22.93
2018-07-06T00:06:04.061Z,22.93
2018-07-06T00:07:04.640Z,22.93
2018-07-06T00:08:05.224Z,22.96
2018-07-06T00:09:05.812Z,22.96
2018-07-06T00:10:06.394Z,22.87
2018-07-06T00:11:07.048Z,22.96
2018-07-06T00:12:07.565Z,22.87
2018-07-06T00:13:08.207Z,22.83
2018-07-06T00:14:08.996Z,22.90
2018-07-06T00:15:09.579Z,22.91
2018-07-06T00:16:10.167Z,22.85
2018-07-06T00:17:10.752Z,22.85
2018-07-06T00:18:11.334Z,22.81
2018-07-06T00:19:11.915Z,22.85
2018-07-06T00:20:12.502Z,22.87
2018-07-06T00:21:13.084Z,22.83
2018-07-06T00:22:13.724Z,22.88
2018-07-06T00:23:14.358Z,22.93
2018-07-06T00:24:14.938Z,22.85
2018-07-06T00:25:15.528Z,22.88
2018-07-06T00:26:16.113Z,22.85
2018-07-06T00:27:16.699Z,22.87
2018-07-06T00:28:17.290Z,22.87
2018-07-06T00:29:18.024Z,22.87
2018-07-06T00:30:18.610Z,22.87
2018-07-06T00:31:19.250Z,22.87
2018-07-06T00:32:19.881Z,22.84
2018-07-06T00:33:20.516Z,22.91
2018-07-06T00:34:21.149Z,22.84
2018-07-06T00:35:21.736Z,22.85
2018-07-06T00:36:22.323Z,22.88
2018-07-06T00:37:22.904Z,22.83
2018-07-06T00:38:23.484Z,22.84
2018-07-06T00:39:24.266Z,22.87
2018-07-06T00:40:24.857Z,22.85
2018-07-06T00:41:25.443Z,22.87
2018-07-06T00:42:26.029Z,22.84
2018-07-06T00:43:26.614Z,22.84
2018-07-06T00:44:27.200Z,22.84
2018-07-06T00:45:27.786Z,22.84
2018-07-06T00:46:28.378Z,22.85
2018-07-06T00:47:29.008Z,22.80
2018-07-06T00:48:29.594Z,22.85
2018-07-06T00:49:30.177Z,22.83
2018-07-06T00:50:30.768Z,22.83
2018-07-06T00:51:31.403Z,22.81
2018-07-06T00:52:32.039Z,22.78
2018-07-06T00:53:32.624Z,22.78
2018-07-06T00:54:38.262Z,22.80
2018-07-06T00:55:38.902Z,22.76
2018-07-06T00:56:39.486Z,22.78
2018-07-06T00:57:40.070Z,22.76
2018-07-06T00:58:40.659Z,22.78
2018-07-06T00:59:41.240Z,22.72
2018-07-06T01:00:41.829Z,22.87
2018-07-06T01:01:42.533Z,22.75
2018-07-06T01:02:42.997Z,22.80
2018-07-06T01:03:43.580Z,22.76
2018-07-06T01:04:44.212Z,22.76
2018-07-06T01:05:44.795Z,22.81
2018-07-06T01:06:45.385Z,22.81
2018-07-06T01:07:46.023Z,22.80
2018-07-06T01:08:46.605Z,22.83
2018-07-06T01:09:47.186Z,22.75
2018-07-06T01:10:47.780Z,22.80
2018-07-06T01:11:48.462Z,22.83
2018-07-06T01:12:49.097Z,22.78
2018-07-06T01:13:49.683Z,22.78
2018-07-06T01:14:50.265Z,22.88
2018-07-06T01:15:50.849Z,22.78
2018-07-06T01:16:51.428Z,22.70
2018-07-06T01:17:52.018Z,22.78
2018-07-06T01:18:52.604Z,22.69
2018-07-06T01:19:53.191Z,22.76
2018-07-06T01:20:53.828Z,22.76
2018-07-06T01:21:54.410Z,22.72
2018-07-06T01:22:54.992Z,22.76
2018-07-06T01:23:55.571Z,22.76
2018-07-06T01:24:56.159Z,22.69
2018-07-06T01:25:56.744Z,22.83
2018-07-06T01:26:57.332Z,22.76
2018-07-06T01:27:57.967Z,22.78
2018-07-06T01:28:58.548Z,22.80
2018-07-06T01:29:59.187Z,22.76
2018-07-06T01:30:59.774Z,22.75
2018-07-06T01:32:00.360Z,22.73
2018-07-06T01:33:00.945Z,22.73
2018-07-06T01:34:01.533Z,22.76
2018-07-06T01:35:02.117Z,22.76
2018-07-06T01:36:02.700Z,22.75
2018-07-06T01:37:03.276Z,22.75
2018-07-06T01:38:03.861Z,22.72
2018-07-06T01:39:04.449Z,22.72
2018-07-06T01:40:05.033Z,22.70
2018-07-06T01:41:05.820Z,22.68
2018-07-06T01:42:06.403Z,22.72
2018-07-06T01:43:06.989Z,22.76
2018-07-06T01:44:07.625Z,22.78
2018-07-06T01:45:08.206Z,22.70
2018-07-06T01:46:08.792Z,22.75
2018-07-06T01:47:09.434Z,22.70
2018-07-06T01:48:10.016Z,22.72
2018-07-06T01:49:10.603Z,22.72
2018-07-06T01:50:11.183Z,22.70
2018-07-06T01:51:11.769Z,22.75
2018-07-06T01:52:12.354Z,22.69
2018-07-06T01:53:12.993Z,22.68
2018-07-06T01:54:13.580Z,22.72
2018-07-06T01:55:14.161Z,22.73
2018-07-06T01:56:14.751Z,22.72
2018-07-06T01:57:15.342Z,22.69
2018-07-06T01:58:15.923Z,22.68
2018-07-06T01:59:16.532Z,22.72
2018-07-06T02:00:17.091Z,22.68
2018-07-06T02:01:17.722Z,22.65
2018-07-06T02:02:18.311Z,22.65
2018-07-06T02:03:18.943Z,22.66
2018-07-06T02:04:19.530Z,22.68
2018-07-06T02:05:20.163Z,22.69
2018-07-06T02:06:20.750Z,22.66
2018-07-06T02:07:21.329Z,22.60
2018-07-06T02:08:21.914Z,22.69
2018-07-06T02:09:22.503Z,22.72
2018-07-06T02:10:23.088Z,22.78
2018-07-06T02:11:23.669Z,22.65
2018-07-06T02:12:24.260Z,22.69
2018-07-06T02:13:24.845Z,22.65
2018-07-06T02:14:25.429Z,22.60
2018-07-06T02:15:26.017Z,22.69
2018-07-06T02:16:26.607Z,22.66
2018-07-06T02:17:27.237Z,22.63
2018-07-06T02:18:27.815Z,22.60
2018-07-06T02:19:28.457Z,22.62
2018-07-06T02:20:29.036Z,22.63
2018-07-06T02:21:29.621Z,22.63
2018-07-06T02:22:30.207Z,22.65
2018-07-06T02:23:30.844Z,22.65
2018-07-06T02:24:31.479Z,22.63
2018-07-06T02:25:32.065Z,22.62
2018-07-06T02:26:32.651Z,22.66
2018-07-06T02:27:33.231Z,22.66
2018-07-06T02:28:33.821Z,22.63
2018-07-06T02:29:34.403Z,22.62
2018-07-06T02:30:34.987Z,22.63
2018-07-06T02:31:35.570Z,22.68
2018-07-06T02:32:36.157Z,22.66
2018-07-06T02:33:36.742Z,22.65
2018-07-06T02:34:37.330Z,22.62
2018-07-06T02:35:37.910Z,22.62
2018-07-06T02:36:38.494Z,22.62
2018-07-06T02:37:39.076Z,22.65
2018-07-06T02:38:39.665Z,22.59
2018-07-06T02:39:40.251Z,22.63
2018-07-06T02:40:40.833Z,22.59
2018-07-06T02:41:41.417Z,22.59
2018-07-06T02:42:42.054Z,22.63
2018-07-06T02:43:42.683Z,22.63
2018-07-06T02:44:43.271Z,22.60
2018-07-06T02:45:43.857Z,22.60
2018-07-06T02:46:44.491Z,22.59
2018-07-06T02:47:45.076Z,22.65
2018-07-06T02:48:45.661Z,22.62
2018-07-06T02:49:46.240Z,22.59
2018-07-06T02:50:46.830Z,22.63
2018-07-06T02:51:47.422Z,22.55
2018-07-06T02:52:48.004Z,22.57
2018-07-06T02:53:48.583Z,22.60
2018-07-06T02:54:49.225Z,22.55
2018-07-06T02:55:49.850Z,22.59
2018-07-06T02:56:50.433Z,22.63
2018-07-06T02:57:51.021Z,22.68
2018-07-06T02:58:51.610Z,22.59
2018-07-06T02:59:52.190Z,22.60
2018-07-06T03:00:52.773Z,22.57
2018-07-06T03:01:53.358Z,22.62
2018-07-06T03:02:53.999Z,22.57
2018-07-06T03:03:54.584Z,22.59
2018-07-06T03:04:55.166Z,22.63
2018-07-06T03:05:55.803Z,22.59
2018-07-06T03:06:56.383Z,22.63
2018-07-06T03:07:56.966Z,22.51
2018-07-06T03:08:57.552Z,22.59
2018-07-06T03:09:58.184Z,22.60
2018-07-06T03:10:58.769Z,22.55
2018-07-06T03:11:59.354Z,22.59
2018-07-06T03:12:59.936Z,22.62
2018-07-06T03:14:00.577Z,22.51
2018-07-06T03:15:01.206Z,22.62
2018-07-06T03:16:01.796Z,22.63
2018-07-06T03:17:02.382Z,22.63
2018-07-06T03:18:03.022Z,22.62
2018-07-06T03:19:03.605Z,22.55
2018-07-06T03:20:04.193Z,22.57
2018-07-06T03:21:04.770Z,22.55
2018-07-06T03:22:05.406Z,22.60
2018-07-06T03:23:05.990Z,22.53
2018-07-06T03:24:06.577Z,22.57
2018-07-06T03:25:07.208Z,22.55
2018-07-06T03:26:07.844Z,22.50
2018-07-06T03:27:08.426Z,22.57
2018-07-06T03:28:09.077Z,22.45
2018-07-06T03:29:09.601Z,22.54
2018-07-06T03:30:10.183Z,22.47
2018-07-06T03:31:10.816Z,22.54
2018-07-06T03:32:11.406Z,22.54
2018-07-06T03:33:11.986Z,22.50
2018-07-06T03:34:12.565Z,22.57
2018-07-06T03:35:13.147Z,22.55
2018-07-06T03:36:13.735Z,22.53
2018-07-06T03:37:14.322Z,22.48
2018-07-06T03:38:14.903Z,22.48
2018-07-06T03:39:15.542Z,22.48
2018-07-06T03:40:16.130Z,22.60
2018-07-06T03:41:16.707Z,22.50
2018-07-06T03:42:17.293Z,22.53
2018-07-06T03:43:17.874Z,22.54
2018-07-06T03:44:18.457Z,22.47
2018-07-06T03:45:19.091Z,22.45
2018-07-06T03:46:19.678Z,22.54
2018-07-06T03:47:20.258Z,22.48
2018-07-06T03:48:20.845Z,22.48
2018-07-06T03:49:21.424Z,22.45
2018-07-06T03:50:22.014Z,22.48
2018-07-06T03:51:22.602Z,22.48
2018-07-06T03:52:23.237Z,22.47
2018-07-06T03:53:23.815Z,22.48
2018-07-06T03:54:24.403Z,22.51
2018-07-06T03:55:24.985Z,22.53
2018-07-06T03:56:25.567Z,22.47
2018-07-06T03:57:26.151Z,22.59
2018-07-06T03:58:26.738Z,22.48
2018-07-06T03:59:27.323Z,22.51
2018-07-06T04:00:27.961Z,22.53
2018-07-06T04:01:28.548Z,22.57
2018-07-06T04:02:29.127Z,22.54
2018-07-06T04:03:29.715Z,22.45
2018-07-06T04:04:30.300Z,22.55
2018-07-06T04:05:30.886Z,22.50
2018-07-06T04:06:31.472Z,22.41
2018-07-06T04:07:32.049Z,22.43
2018-07-06T04:08:32.637Z,22.44
2018-07-06T04:09:33.264Z,22.44
2018-07-06T04:10:33.851Z,22.47
2018-07-06T04:11:34.432Z,22.41
2018-07-06T04:12:35.065Z,22.44
2018-07-06T04:13:35.653Z,22.53
2018-07-06T04:14:36.232Z,22.53
2018-07-06T04:15:36.812Z,22.41
2018-07-06T04:16:37.398Z,22.44
2018-07-06T04:17:37.982Z,22.44
2018-07-06T04:18:38.571Z,22.43
2018-07-06T04:19:39.162Z,22.39
2018-07-06T04:20:39.786Z,22.45
2018-07-06T04:21:40.366Z,22.47
2018-07-06T04:22:41.006Z,22.48
2018-07-06T04:23:41.586Z,22.41
2018-07-06T04:24:42.172Z,22.44
2018-07-06T04:25:42.756Z,22.39
2018-07-06T04:26:43.337Z,22.43
2018-07-06T04:27:43.926Z,22.36
2018-07-06T04:28:44.561Z,22.41
2018-07-06T04:29:45.145Z,22.36
2018-07-06T04:30:45.731Z,22.35
2018-07-06T04:31:46.313Z,22.41
2018-07-06T04:32:46.950Z,22.36
2018-07-06T04:33:47.537Z,22.43
2018-07-06T04:34:48.117Z,22.38
2018-07-06T04:35:48.752Z,22.33
2018-07-06T04:36:49.333Z,22.38
2018-07-06T04:37:49.969Z,22.38
2018-07-06T04:38:50.553Z,22.36
2018-07-06T04:39:51.138Z,22.39
2018-07-06T04:40:51.721Z,22.36
2018-07-06T04:41:52.306Z,22.41
2018-07-06T04:42:52.887Z,22.41
2018-07-06T04:43:53.476Z,22.39
2018-07-06T04:44:54.064Z,22.51
2018-07-06T04:45:54.642Z,22.38
2018-07-06T04:46:55.232Z,22.39
2018-07-06T04:47:55.918Z,22.41
2018-07-06T04:48:56.496Z,22.43
2018-07-06T04:49:57.084Z,22.39
2018-07-06T04:50:57.724Z,22.35
2018-07-06T04:51:58.249Z,22.36
2018-07-06T04:52:58.837Z,22.47
2018-07-06T04:53:59.415Z,22.38
2018-07-06T04:55:00.058Z,22.41
2018-07-06T04:56:00.687Z,22.33
2018-07-06T04:57:01.270Z,22.44
2018-07-06T04:58:01.861Z,22.47
2018-07-06T04:59:02.488Z,22.33
2018-07-06T05:00:03.075Z,22.45
2018-07-06T05:01:03.661Z,22.44
2018-07-06T05:02:04.245Z,22.39
2018-07-06T05:03:04.832Z,22.38
2018-07-06T05:04:05.466Z,22.36
2018-07-06T05:05:06.052Z,22.45
2018-07-06T05:06:06.638Z,22.39
2018-07-06T05:07:07.222Z,22.39
2018-07-06T05:08:07.808Z,22.41
2018-07-06T05:09:08.389Z,22.43
2018-07-06T05:10:08.981Z,22.45
2018-07-06T05:11:09.564Z,22.43
2018-07-06T05:12:10.150Z,22.45
2018-07-06T05:13:10.733Z,22.45
2018-07-06T05:14:11.320Z,22.44
2018-07-06T05:15:11.913Z,22.44
2018-07-06T05:16:12.549Z,22.43
2018-07-06T05:17:13.180Z,22.44
2018-07-06T05:18:13.769Z,22.38
2018-07-06T05:19:14.403Z,22.45
2018-07-06T05:20:14.983Z,22.41
2018-07-06T05:21:15.567Z,22.39
2018-07-06T05:22:16.153Z,22.39
2018-07-06T05:23:16.735Z,22.41
2018-07-06T05:24:17.324Z,22.38
2018-07-06T05:25:17.907Z,22.41
2018-07-06T05:26:18.493Z,22.47
2018-07-06T05:27:19.080Z,22.41
2018-07-06T05:28:19.668Z,22.33
2018-07-06T05:29:20.253Z,22.38
2018-07-06T05:30:21.039Z,22.39
2018-07-06T05:31:21.672Z,22.41
2018-07-06T05:32:22.249Z,22.43
2018-07-06T05:33:22.839Z,22.44
2018-07-06T05:34:23.427Z,22.43
2018-07-06T05:35:24.058Z,22.39
2018-07-06T05:36:24.647Z,22.44
2018-07-06T05:37:25.237Z,22.43
2018-07-06T05:38:25.819Z,22.41
2018-07-06T05:39:26.402Z,22.43
2018-07-06T05:40:26.980Z,22.35
2018-07-06T05:41:27.563Z,22.43
2018-07-06T05:42:28.148Z,22.45
2018-07-06T05:43:28.734Z,22.38
2018-07-06T05:44:29.321Z,22.39
2018-07-06T05:45:29.901Z,22.45
2018-07-06T05:46:30.484Z,22.43
2018-07-06T05:47:31.117Z,22.38
2018-07-06T05:48:31.707Z,22.43
2018-07-06T05:49:32.288Z,22.41
2018-07-06T05:50:32.931Z,22.43
2018-07-06T05:51:33.553Z,22.43
2018-07-06T05:52:34.142Z,22.43
2018-07-06T05:53:34.770Z,22.41
2018-07-06T05:54:35.364Z,22.41
2018-07-06T05:55:35.946Z,22.43
2018-07-06T05:56:36.526Z,22.43
2018-07-06T05:57:37.109Z,22.35
2018-07-06T05:58:37.690Z,22.36
2018-07-06T05:59:38.273Z,22.39
2018-07-06T06:00:38.861Z,22.41
2018-07-06T06:01:39.443Z,22.38
2018-07-06T06:02:40.034Z,22.33
2018-07-06T06:03:40.661Z,22.33
2018-07-06T06:04:41.296Z,22.32
2018-07-06T06:05:41.838Z,22.35
2018-07-06T06:06:42.465Z,22.39
2018-07-06T06:07:43.053Z,22.35
2018-07-06T06:08:43.632Z,22.39
2018-07-06T06:09:44.265Z,22.32
2018-07-06T06:10:44.850Z,22.36
2018-07-06T06:11:45.437Z,22.36
2018-07-06T06:12:46.025Z,22.35
2018-07-06T06:13:46.615Z,22.33
2018-07-06T06:14:47.250Z,22.38
2018-07-06T06:15:47.781Z,22.35
2018-07-06T06:16:48.367Z,22.39
2018-07-06T06:17:48.951Z,22.35
2018-07-06T06:18:49.625Z,22.33
2018-07-06T06:19:50.212Z,22.33
2018-07-06T06:20:50.788Z,22.43
2018-07-06T06:21:51.422Z,22.33
2018-07-06T06:22:52.047Z,22.36
2018-07-06T06:23:52.636Z,22.38
2018-07-06T06:24:58.348Z,22.33
2018-07-06T06:25:58.912Z,22.38
2018-07-06T06:26:59.499Z,22.35
2018-07-06T06:28:00.083Z,22.30
2018-07-06T06:29:00.712Z,22.36
2018-07-06T06:30:01.301Z,22.33
2018-07-06T06:31:01.886Z,22.41
2018-07-06T06:32:02.470Z,22.36
2018-07-06T06:33:03.097Z,22.39
2018-07-06T06:34:03.678Z,22.36
2018-07-06T06:35:04.261Z,22.39
2018-07-06T06:36:04.843Z,22.39
2018-07-06T06:37:05.479Z,22.39
2018-07-06T06:38:06.109Z,22.35
2018-07-06T06:39:06.697Z,22.38
2018-07-06T06:40:07.280Z,22.30
2018-07-06T06:41:07.866Z,22.41
2018-07-06T06:42:08.448Z,22.35
2018-07-06T06:43:09.037Z,22.35
2018-07-06T06:44:09.621Z,22.36
2018-07-06T06:45:10.209Z,22.36
2018-07-06T06:46:10.788Z,22.38
2018-07-06T06:47:11.422Z,22.38
2018-07-06T06:48:12.058Z,22.41
2018-07-06T06:49:12.647Z,22.28
2018-07-06T06:50:13.232Z,22.43
2018-07-06T06:51:13.819Z,22.35
2018-07-06T06:52:14.402Z,22.33
2018-07-06T06:53:14.988Z,22.35
2018-07-06T06:54:15.569Z,22.38
2018-07-06T06:55:16.206Z,22.41
2018-07-06T06:56:16.792Z,22.36
2018-07-06T06:57:17.372Z,22.36
2018-07-06T06:58:17.959Z,22.41
2018-07-06T06:59:18.545Z,22.36
2018-07-06T07:00:21.149Z,22.33
2018-07-06T07:01:19.711Z,22.35
2018-07-06T07:02:20.295Z,22.28
2018-07-06T07:03:20.880Z,22.39
2018-07-06T07:04:21.510Z,22.36
2018-07-06T07:05:22.147Z,22.36
2018-07-06T07:06:22.732Z,22.39
2018-07-06T07:07:23.342Z,22.32
2018-07-06T07:08:23.940Z,22.35
2018-07-06T07:09:24.528Z,22.38
2018-07-06T07:10:25.161Z,22.35
2018-07-06T07:11:25.741Z,22.35
2018-07-06T07:12:26.331Z,22.30
2018-07-06T07:13:26.917Z,22.36
2018-07-06T07:14:27.503Z,22.36
2018-07-06T07:15:28.083Z,22.38
2018-07-06T07:16:28.667Z,22.41
2018-07-06T07:17:29.255Z,22.36
2018-07-06T07:18:29.838Z,22.33
2018-07-06T07:19:30.425Z,22.36
2018-07-06T07:20:31.004Z,22.35
2018-07-06T07:21:31.594Z,22.33
2018-07-06T07:22:32.182Z,22.43
2018-07-06T07:23:32.764Z,22.39
2018-07-06T07:24:33.392Z,22.36
2018-07-06T07:25:34.030Z,22.32
2018-07-06T07:26:34.615Z,22.38
2018-07-06T07:27:35.200Z,22.36
2018-07-06T07:28:35.777Z,22.30
2018-07-06T07:29:36.363Z,22.38
2018-07-06T07:30:36.949Z,22.36
2018-07-06T07:31:37.583Z,22.38
2018-07-06T07:32:38.169Z,22.43
2018-07-06T07:33:38.748Z,22.36
2018-07-06T07:34:39.328Z,22.35
2018-07-06T07:35:39.913Z,22.43
2018-07-06T07:36:40.498Z,22.35
2018-07-06T07:37:41.084Z,22.43
2018-07-06T07:38:41.670Z,22.39
2018-07-06T07:39:42.253Z,22.36
2018-07-06T07:40:42.887Z,22.41
2018-07-06T07:41:43.472Z,22.43
2018-07-06T07:42:44.060Z,22.43
2018-07-06T07:43:44.644Z,22.44
2018-07-06T07:44:45.229Z,22.35
2018-07-06T07:45:45.816Z,22.41
2018-07-06T07:46:46.400Z,22.44
2018-07-06T07:47:47.033Z,22.41
2018-07-06T07:48:47.636Z,22.45
2018-07-06T07:49:48.299Z,22.39
2018-07-06T07:50:48.927Z,22.43
2018-07-06T07:51:49.512Z,22.47
2018-07-06T07:52:50.097Z,22.44
2018-07-06T07:53:50.679Z,22.43
2018-07-06T07:54:51.263Z,22.41
2018-07-06T07:55:51.852Z,22.38
2018-07-06T07:56:52.438Z,22.38
2018-07-06T07:57:53.025Z,22.47
2018-07-06T07:58:53.610Z,22.41
2018-07-06T07:59:54.190Z,22.43
2018-07-06T08:00:54.855Z,22.43
2018-07-06T08:01:55.415Z,22.38
2018-07-06T08:02:55.996Z,22.41
2018-07-06T08:03:56.635Z,22.36
2018-07-06T08:04:57.221Z,22.43
2018-07-06T08:05:57.808Z,22.43
2018-07-06T08:06:58.439Z,22.39
2018-07-06T08:07:59.024Z,22.35
2018-07-06T08:08:59.612Z,22.45
2018-07-06T08:10:00.197Z,22.41
2018-07-06T08:11:00.780Z,22.36
2018-07-06T08:12:01.361Z,22.39
2018-07-06T08:13:01.949Z,22.47
2018-07-06T08:14:05.042Z,22.45
2018-07-06T08:15:03.123Z,22.45
2018-07-06T08:16:03.701Z,22.55
2018-07-06T08:17:04.288Z,22.57
2018-07-06T08:18:04.915Z,22.55
2018-07-06T08:19:05.504Z,22.47
2018-07-06T08:20:06.092Z,22.48
2018-07-06T08:21:06.679Z,22.53
2018-07-06T08:22:07.269Z,22.51
2018-07-06T08:23:07.898Z,22.55
2018-07-06T08:24:08.536Z,22.59
2018-07-06T08:25:09.120Z,22.54
2018-07-06T08:26:09.708Z,22.51
2018-07-06T08:27:10.288Z,22.53
2018-07-06T08:28:10.925Z,22.55
2018-07-06T08:29:11.509Z,22.48
2018-07-06T08:30:12.109Z,22.51
2018-07-06T08:31:12.723Z,22.50
2018-07-06T08:32:13.306Z,22.48
2018-07-06T08:33:13.897Z,22.50
2018-07-06T08:34:14.476Z,22.51
2018-07-06T08:35:15.115Z,22.50
2018-07-06T08:36:15.698Z,22.50
2018-07-06T08:37:16.289Z,22.60
2018-07-06T08:38:16.868Z,22.59
2018-07-06T08:39:17.458Z,22.60
2018-07-06T08:40:18.084Z,22.59
2018-07-06T08:41:18.672Z,22.53
2018-07-06T08:42:19.255Z,22.51
2018-07-06T08:43:19.846Z,22.54
2018-07-06T08:44:20.427Z,22.50
2018-07-06T08:45:21.061Z,22.55
2018-07-06T08:46:21.647Z,22.62
2018-07-06T08:47:22.235Z,22.53
2018-07-06T08:48:22.815Z,22.57
2018-07-06T08:49:23.408Z,22.51
2018-07-06T08:50:24.055Z,22.55
2018-07-06T08:51:24.675Z,22.48
2018-07-06T08:52:25.262Z,22.51
2018-07-06T08:53:25.848Z,22.51
2018-07-06T08:54:26.431Z,22.48
2018-07-06T08:55:27.064Z,22.53
2018-07-06T08:56:27.649Z,22.48
2018-07-06T08:57:28.241Z,22.48
2018-07-06T08:58:28.978Z,22.50
2018-07-06T08:59:29.457Z,22.54
2018-07-06T09:00:30.038Z,22.50
2018-07-06T09:01:30.626Z,22.53
2018-07-06T09:02:31.213Z,22.50
2018-07-06T09:03:31.802Z,22.54
2018-07-06T09:04:32.516Z,22.51
2018-07-06T09:05:33.023Z,22.54
2018-07-06T09:06:33.608Z,22.51
2018-07-06T09:07:34.236Z,22.48
2018-07-06T09:08:34.782Z,22.45
2018-07-06T09:09:35.416Z,22.50
2018-07-06T09:10:36.007Z,22.44
2018-07-06T09:11:36.583Z,22.51
2018-07-06T09:12:37.167Z,22.50
2018-07-06T09:13:37.748Z,22.50
2018-07-06T09:14:38.381Z,22.50
2018-07-06T09:15:38.971Z,22.47
2018-07-06T09:16:39.559Z,22.54
2018-07-06T09:17:40.141Z,22.48
2018-07-06T09:18:40.726Z,22.45
2018-07-06T09:19:41.440Z,22.48
2018-07-06T09:20:41.900Z,22.54
2018-07-06T09:21:42.577Z,22.54
2018-07-06T09:22:43.218Z,22.54
2018-07-06T09:23:43.800Z,22.48
2018-07-06T09:24:44.385Z,22.47
2018-07-06T09:25:44.999Z,22.45
2018-07-06T09:26:45.550Z,22.47
2018-07-06T09:27:46.132Z,22.48
2018-07-06T09:28:46.774Z,22.51
2018-07-06T09:29:47.360Z,22.51
2018-07-06T09:30:47.992Z,22.50
2018-07-06T09:31:48.574Z,22.59
2018-07-06T09:32:49.163Z,22.63
2018-07-06T09:33:49.748Z,22.63
2018-07-06T09:34:50.334Z,22.62
2018-07-06T09:35:50.947Z,22.62
2018-07-06T09:36:51.556Z,22.57
2018-07-06T09:37:52.138Z,22.63
2018-07-06T09:38:52.778Z,22.59
2018-07-06T09:39:53.476Z,22.59
2018-07-06T09:40:53.944Z,22.60
2018-07-06T09:41:54.577Z,22.59
2018-07-06T09:42:55.170Z,22.63
2018-07-06T09:43:55.750Z,22.59
2018-07-06T09:44:56.339Z,22.63
2018-07-06T09:45:56.928Z,22.59
2018-07-06T09:46:57.519Z,22.60
2018-07-06T09:47:58.110Z,22.54
2018-07-06T09:48:58.688Z,22.60
2018-07-06T09:49:59.276Z,22.65
2018-07-06T09:50:59.885Z,22.63
2018-07-06T09:52:00.486Z,22.63
2018-07-06T09:53:01.080Z,22.62
2018-07-06T09:54:01.659Z,22.65
2018-07-06T09:55:02.296Z,22.60
2018-07-06T09:56:02.879Z,22.65
2018-07-06T09:57:03.517Z,22.63
2018-07-06T09:58:04.164Z,22.65
2018-07-06T09:59:04.688Z,22.62
2018-07-06T10:00:05.275Z,22.60
2018-07-06T10:01:05.854Z,22.60
2018-07-06T10:02:06.439Z,22.65
2018-07-06T10:03:07.074Z,22.57
2018-07-06T10:04:07.662Z,22.65
2018-07-06T10:05:08.249Z,22.57
2018-07-06T10:06:08.831Z,22.59
2018-07-06T10:07:09.464Z,22.60
2018-07-06T10:08:10.050Z,22.59
2018-07-06T10:09:10.678Z,22.63
2018-07-06T10:10:11.315Z,22.65
2018-07-06T10:11:11.850Z,22.69
2018-07-06T10:12:12.440Z,22.72
2018-07-06T10:13:13.077Z,22.66
2018-07-06T10:14:13.663Z,22.69
2018-07-06T10:15:14.239Z,22.72
2018-07-06T10:16:14.862Z,22.72
2018-07-06T10:17:15.465Z,22.75
2018-07-06T10:18:16.046Z,22.72
2018-07-06T10:19:16.684Z,22.76
2018-07-06T10:20:17.274Z,22.76
2018-07-06T10:21:17.905Z,22.84
2018-07-06T10:22:18.536Z,22.81
2018-07-06T10:23:19.123Z,22.76
2018-07-06T10:24:19.707Z,22.76
2018-07-06T10:25:20.291Z,22.75
2018-07-06T10:26:20.879Z,22.72
2018-07-06T10:27:21.482Z,22.78
2018-07-06T10:28:22.047Z,22.78
2018-07-06T10:29:22.634Z,22.81
2018-07-06T10:30:23.219Z,22.85
2018-07-06T10:31:23.848Z,22.81
2018-07-06T10:32:24.487Z,22.83
2018-07-06T10:33:25.099Z,22.84
2018-07-06T10:34:25.654Z,22.85
2018-07-06T10:35:26.290Z,22.85
2018-07-06T10:36:26.927Z,22.83
2018-07-06T10:37:27.510Z,22.87
2018-07-06T10:38:28.137Z,22.87
2018-07-06T10:39:28.738Z,22.85
2018-07-06T10:40:29.317Z,22.88
2018-07-06T10:41:29.898Z,22.88
2018-07-06T10:42:30.486Z,22.93
2018-07-06T10:43:31.115Z,22.88
2018-07-06T10:44:31.701Z,22.90
2018-07-06T10:45:32.297Z,22.93
2018-07-06T10:46:32.879Z,22.91
2018-07-06T10:47:33.498Z,22.93
2018-07-06T10:48:34.085Z,22.91
2018-07-06T10:49:34.670Z,22.94
2018-07-06T10:50:35.253Z,22.90
2018-07-06T10:51:35.890Z,22.93
2018-07-06T10:52:36.569Z,22.85
2018-07-06T10:53:37.105Z,22.99
2018-07-06T10:54:37.697Z,22.96
2018-07-06T10:55:38.286Z,22.98
2018-07-06T10:56:38.871Z,22.98
2018-07-06T10:57:39.453Z,23.03
2018-07-06T10:58:40.094Z,22.98
2018-07-06T10:59:40.682Z,23.00
2018-07-06T11:00:41.268Z,23.02
2018-07-06T11:01:41.854Z,22.98
2018-07-06T11:02:42.438Z,22.96
2018-07-06T11:03:43.079Z,22.93
2018-07-06T11:04:43.656Z,23.05
2018-07-06T11:05:44.248Z,22.99
2018-07-06T11:06:44.834Z,22.94
2018-07-06T11:07:45.421Z,23.05
2018-07-06T11:08:46.053Z,23.00
2018-07-06T11:09:46.640Z,23.02
2018-07-06T11:10:47.227Z,23.03
2018-07-06T11:11:47.850Z,23.06
2018-07-06T11:12:48.435Z,22.98
2018-07-06T11:13:49.073Z,23.00
2018-07-06T11:14:49.711Z,23.06
2018-07-06T11:15:50.294Z,23.05
2018-07-06T11:16:50.886Z,22.99
2018-07-06T11:17:51.468Z,23.06
2018-07-06T11:18:52.101Z,23.02
2018-07-06T11:19:52.728Z,23.00
2018-07-06T11:20:53.312Z,23.05
2018-07-06T11:21:53.901Z,23.03
2018-07-06T11:22:54.538Z,23.06
2018-07-06T11:23:55.124Z,23.05
2018-07-06T11:24:55.715Z,23.12
2018-07-06T11:25:56.292Z,23.13
2018-07-06T11:26:56.877Z,23.08
2018-07-06T11:27:57.461Z,23.06
2018-07-06T11:28:58.045Z,23.15
2018-07-06T11:29:58.636Z,23.06
2018-07-06T11:30:59.273Z,23.08
2018-07-06T11:31:59.939Z,23.13
2018-07-06T11:33:00.539Z,23.15
2018-07-06T11:34:01.121Z,23.15
2018-07-06T11:35:01.708Z,23.08
2018-07-06T11:36:02.495Z,23.08
2018-07-06T11:37:03.082Z,23.13
2018-07-06T11:38:03.740Z,23.20
2018-07-06T11:39:04.253Z,23.17
2018-07-06T11:40:04.832Z,23.15
2018-07-06T11:41:05.414Z,23.17
2018-07-06T11:42:06.010Z,23.15
2018-07-06T11:43:06.634Z,23.08
2018-07-06T11:44:07.216Z,23.24
2018-07-06T11:45:07.894Z,23.17
2018-07-06T11:46:08.391Z,23.18
2018-07-06T11:47:08.984Z,23.15
2018-07-06T11:48:09.659Z,23.18
2018-07-06T11:49:10.248Z,23.13
2018-07-06T11:50:10.932Z,23.18
2018-07-06T11:51:11.519Z,23.15
2018-07-06T11:52:12.107Z,23.17
2018-07-06T11:53:12.787Z,23.20
2018-07-06T11:54:13.374Z,23.15
2018-07-06T11:55:13.964Z,23.18
2018-07-06T11:56:14.549Z,23.20
2018-07-06T11:57:15.178Z,23.24
2018-07-06T11:58:15.824Z,23.21
2018-07-06T11:59:16.390Z,23.23
2018-07-06T12:00:16.980Z,23.24
2018-07-06T12:01:17.564Z,23.21
2018-07-06T12:02:18.152Z,23.21
2018-07-06T12:03:18.788Z,23.24
2018-07-06T12:04:19.426Z,23.28
2018-07-06T12:05:19.953Z,23.37
2018-07-06T12:06:20.538Z,23.34
2018-07-06T12:07:21.123Z,23.28
2018-07-06T12:08:21.913Z,23.37
2018-07-06T12:09:22.497Z,23.36
2018-07-06T12:10:23.078Z,23.36
2018-07-06T12:11:23.671Z,23.37
2018-07-06T12:12:24.255Z,23.37
2018-07-06T12:13:24.888Z,23.37
2018-07-06T12:14:25.478Z,23.40
2018-07-06T12:15:26.115Z,23.39
2018-07-06T12:16:26.653Z,23.41
2018-07-06T12:17:27.241Z,23.39
2018-07-06T12:18:27.824Z,23.40
2018-07-06T12:19:28.464Z,23.37
2018-07-06T12:20:29.053Z,23.40
2018-07-06T12:21:29.731Z,23.41
2018-07-06T12:22:30.225Z,23.37
2018-07-06T12:23:30.808Z,23.40
2018-07-06T12:24:31.394Z,23.43
2018-07-06T12:25:32.030Z,23.39
2018-07-06T12:26:32.616Z,23.44
2018-07-06T12:27:33.245Z,23.44
2018-07-06T12:28:33.831Z,23.41
2018-07-06T12:29:34.463Z,23.43
2018-07-06T12:30:35.051Z,23.44
2018-07-06T12:31:35.638Z,23.39
2018-07-06T12:32:36.269Z,23.44
2018-07-06T12:33:36.856Z,23.40
2018-07-06T12:34:37.443Z,23.41
2018-07-06T12:35:38.029Z,23.39
2018-07-06T12:36:38.686Z,23.44
2018-07-06T12:37:39.247Z,23.41
2018-07-06T12:38:39.884Z,23.44
2018-07-06T12:39:40.463Z,23.43
2018-07-06T12:40:41.053Z,23.41
2018-07-06T12:41:41.661Z,23.44
2018-07-06T12:42:42.271Z,23.40
2018-07-06T12:43:42.851Z,23.46
2018-07-06T12:44:43.434Z,23.43
2018-07-06T12:45:44.024Z,23.43
2018-07-06T12:46:44.654Z,23.44
2018-07-06T12:47:45.244Z,23.39
2018-07-06T12:48:45.901Z,23.37
2018-07-06T12:49:46.469Z,23.43
2018-07-06T12:50:47.058Z,23.41
2018-07-06T12:51:47.637Z,23.43
2018-07-06T12:52:48.219Z,23.40
2018-07-06T12:53:48.802Z,23.47
2018-07-06T12:54:49.386Z,23.41
2018-07-06T12:55:50.103Z,23.40
2018-07-06T12:56:50.701Z,23.40
2018-07-06T12:57:51.284Z,23.37
2018-07-06T12:58:51.886Z,23.40
2018-07-06T12:59:52.512Z,23.37